Time;durP1;ratioP1;P1;durP2;ratioP2;P2;SDS_P1;SDS_P2;PMS_P1;PMS_P2;Temp;Humidity;BMP_temperature;BMP_pressure;BME280_temperature;BME280_humidity;BME280_pressure;Samples;Min_cycle;Max_cycle;Signal;HPM_P1;HPM_P2
2022/07/19 00:01:41;;;;;;;14.35;5.45;;;21.10;73.60;;;;;;5012865;28;20034;-69
2022/07/19 00:04:07;;;;;;;12.50;5.07;;;21.10;73.80;;;;;;5012611;28;20034;-69
2022/07/19 00:06:33;;;;;;;10.75;5.40;;;21.10;73.70;;;;;;5012533;28;20371;-69
2022/07/19 00:08:59;;;;;;;12.45;5.13;;;21.10;74.60;;;;;;5012710;28;20042;-69
2022/07/19 00:11:25;;;;;;;14.60;5.35;;;21.10;74.50;;;;;;5012993;28;20022;-68
2022/07/19 00:13:50;;;;;;;11.38;5.57;;;21.10;74.60;;;;;;5012013;28;20032;-69
2022/07/19 00:16:16;;;;;;;9.00;5.63;;;21.10;75.00;;;;;;5011357;28;20349;-69
2022/07/19 00:18:42;;;;;;;10.27;4.90;;;21.10;74.90;;;;;;5011410;28;20022;-69
2022/07/19 00:21:07;;;;;;;11.88;5.15;;;21.10;74.20;;;;;;5012382;28;20110;-68
2022/07/19 00:23:33;;;;;;;10.38;5.25;;;21.10;75.10;;;;;;5012667;28;20460;-68
2022/07/19 00:26:00;;;;;;;12.82;5.82;;;21.10;75.30;;;;;;5011984;28;20022;-68
2022/07/19 00:28:26;;;;;;;11.70;5.35;;;21.10;75.60;;;;;;5012335;28;20034;-69
2022/07/19 00:30:51;;;;;;;11.75;5.35;;;21.00;76.20;;;;;;5012404;28;20122;-69
2022/07/19 00:33:17;;;;;;;9.10;4.93;;;21.00;76.40;;;;;;5011293;28;20033;-69
2022/07/19 00:35:43;;;;;;;7.82;4.80;;;20.90;76.70;;;;;;5011798;28;20471;-68
2022/07/19 00:38:11;;;;;;;9.07;5.30;;;20.90;77.20;;;;;;5012790;28;20292;-69
2022/07/19 00:40:37;;;;;;;;;;;20.90;77.10;;;;;;5011425;28;20030;-69
2022/07/19 00:43:04;;;;;;;9.98;4.82;;;20.90;76.50;;;;;;5011034;28;19957;-68
2022/07/19 00:45:30;;;;;;;9.90;5.35;;;20.80;77.50;;;;;;5010908;28;20026;-69
2022/07/19 00:47:56;;;;;;;9.02;5.03;;;20.70;78.10;;;;;;5011937;28;20478;-69
2022/07/19 00:50:22;;;;;;;14.05;5.25;;;20.60;78.80;;;;;;5012843;28;20065;-68
2022/07/19 00:53:00;;;;;;;11.18;5.10;;;20.60;79.30;;;;;;5010971;28;20520;-68
2022/07/19 00:55:29;;;;;;;10.00;5.28;;;20.60;79.80;;;;;;4973137;28;1139281;-69
2022/07/19 00:57:56;;;;;;;12.32;4.88;;;20.50;80.40;;;;;;5012650;28;20527;-70
2022/07/19 01:00:22;;;;;;;9.10;4.82;;;20.50;80.00;;;;;;5012946;28;20045;-68
2022/07/19 01:02:48;;;;;;;9.35;4.80;;;20.50;80.90;;;;;;5012511;28;20026;-68
2022/07/19 01:05:14;;;;;;;11.43;5.03;;;20.40;81.40;;;;;;5013128;28;20424;-70
2022/07/19 01:07:41;;;;;;;12.18;4.82;;;20.40;81.80;;;;;;5012739;28;20045;-67
2022/07/19 01:10:08;;;;;;;8.30;5.35;;;20.30;82.40;;;;;;5012703;28;20464;-68
2022/07/19 01:12:34;;;;;;;9.90;5.05;;;20.30;82.80;;;;;;5012407;28;20231;-69
2022/07/19 01:15:01;;;;;;;10.90;5.30;;;20.20;82.80;;;;;;5012243;28;20032;-69
2022/07/19 01:17:27;;;;;;;11.32;5.10;;;20.20;83.10;;;;;;5015711;28;20054;-69
2022/07/19 01:19:53;;;;;;;11.85;5.80;;;20.20;83.80;;;;;;5031884;28;20391;-69
2022/07/19 01:22:20;;;;;;;10.68;5.40;;;20.10;84.40;;;;;;5031679;28;20112;-69
2022/07/19 01:24:45;;;;;;;12.02;5.47;;;20.10;84.40;;;;;;5029631;28;20160;-69
2022/07/19 01:27:11;;;;;;;12.10;5.05;;;20.20;84.90;;;;;;5030777;28;20053;-69
2022/07/19 01:29:38;;;;;;;11.07;4.68;;;20.10;85.50;;;;;;5032246;28;20088;-70
2022/07/19 01:32:05;;;;;;;8.52;4.57;;;20.10;84.70;;;;;;5032510;28;20025;-68
2022/07/19 01:34:32;;;;;;;6.93;4.32;;;20.00;86.40;;;;;;5031937;28;20034;-68
2022/07/19 01:36:58;;;;;;;8.13;4.68;;;20.10;86.80;;;;;;5013716;28;20196;-68
2022/07/19 01:39:23;;;;;;;8.27;4.18;;;20.00;88.10;;;;;;5012013;28;20036;-70
2022/07/19 01:41:49;;;;;;;7.28;4.22;;;20.00;88.40;;;;;;5012238;28;20156;-69
2022/07/19 01:44:15;;;;;;;11.15;4.28;;;20.00;88.50;;;;;;5012248;28;20092;-69
2022/07/19 01:46:41;;;;;;;7.35;4.20;;;19.90;88.70;;;;;;5011893;28;20425;-69
2022/07/19 01:49:07;;;;;;;9.32;3.70;;;20.00;89.10;;;;;;5011699;28;20372;-68
2022/07/19 01:51:32;;;;;;;6.43;3.88;;;19.90;89.00;;;;;;5011733;28;20413;-69
2022/07/19 01:53:58;;;;;;;9.65;4.20;;;19.90;90.10;;;;;;5010722;28;20034;-69
2022/07/19 01:56:24;;;;;;;8.20;4.25;;;19.80;90.10;;;;;;5012056;28;20452;-70
2022/07/19 01:58:50;;;;;;;8.85;4.18;;;19.80;90.60;;;;;;5011849;28;20033;-68
2022/07/19 02:01:15;;;;;;;8.52;4.43;;;19.80;90.50;;;;;;5011577;28;20033;-68
2022/07/19 02:03:41;;;;;;;9.32;4.40;;;19.80;90.40;;;;;;5011652;28;20168;-69
2022/07/19 02:06:07;;;;;;;9.50;4.25;;;19.80;90.50;;;;;;5011668;28;20129;-71
2022/07/19 02:08:33;;;;;;;9.70;4.43;;;19.70;90.90;;;;;;5011518;28;20034;-69
2022/07/19 02:11:34;;;;;;;6.47;3.53;;;19.60;91.10;;;;;;5012415;28;20026;-69
2022/07/19 02:13:50;;;;;;;11.45;4.45;;;19.60;91.20;;;;;;5011626;28;20050;-70
2022/07/19 02:16:16;;;;;;;6.03;3.50;;;19.60;91.30;;;;;;5011393;28;20408;-70
2022/07/19 02:18:41;;;;;;;8.77;4.00;;;19.50;91.50;;;;;;5011637;28;20026;-70
2022/07/19 02:21:07;;;;;;;7.20;3.72;;;19.50;91.30;;;;;;5011571;28;20041;-70
2022/07/19 02:23:33;;;;;;;9.20;3.58;;;19.60;91.10;;;;;;5010537;28;20329;-70
2022/07/19 02:25:58;;;;;;;8.15;3.28;;;19.50;91.20;;;;;;5011858;28;20033;-70
2022/07/19 02:28:24;;;;;;;10.25;4.00;;;19.50;91.60;;;;;;5011441;28;20060;-69
2022/07/19 02:30:50;;;;;;;6.22;3.67;;;19.40;91.90;;;;;;5011557;28;20036;-69
2022/07/19 02:33:16;;;;;;;11.65;4.72;;;19.40;91.90;;;;;;5010306;28;20360;-69
2022/07/19 02:35:41;;;;;;;9.93;4.28;;;19.40;91.80;;;;;;5011196;28;20448;-70
2022/07/19 02:38:07;;;;;;;9.85;4.25;;;19.30;91.80;;;;;;5011790;28;20328;-70
2022/07/19 02:40:33;;;;;;;11.43;4.25;;;19.30;91.80;;;;;;5011209;28;20037;-69
2022/07/19 02:42:58;;;;;;;5.82;3.25;;;19.30;92.20;;;;;;5011080;28;20480;-69
2022/07/19 02:45:24;;;;;;;13.50;3.55;;;19.20;92.10;;;;;;5011214;28;20479;-70
2022/07/19 02:47:49;;;;;;;6.20;3.70;;;19.30;92.20;;;;;;5011128;28;20045;-70
2022/07/19 02:50:15;;;;;;;7.70;3.40;;;19.20;92.20;;;;;;5011587;28;20587;-69
2022/07/19 02:52:41;;;;;;;10.07;3.60;;;19.20;92.30;;;;;;5011173;28;20219;-70
2022/07/19 02:55:07;;;;;;;9.25;3.83;;;19.10;92.40;;;;;;5010855;28;20061;-69
2022/07/19 02:57:33;;;;;;;7.80;3.70;;;19.10;92.30;;;;;;5010114;28;20045;-69
2022/07/19 02:59:58;;;;;;;9.98;3.72;;;19.10;92.40;;;;;;5010907;28;20478;-70
2022/07/19 03:02:24;;;;;;;6.57;3.50;;;19.10;92.20;;;;;;5011455;28;20036;-68
2022/07/19 03:04:50;;;;;;;8.18;3.50;;;19.10;92.00;;;;;;5011268;28;20065;-69
2022/07/19 03:07:16;;;;;;;8.52;3.25;;;19.10;92.30;;;;;;5011079;28;20030;-69
2022/07/19 03:09:42;;;;;;;11.90;3.50;;;19.00;92.50;;;;;;5011053;28;20036;-70
2022/07/19 03:12:08;;;;;;;8.30;3.08;;;19.00;92.40;;;;;;5011172;28;20371;-70
2022/07/19 03:14:33;;;;;;;8.85;3.13;;;19.00;92.70;;;;;;5010794;28;20113;-69
2022/07/19 03:16:59;;;;;;;9.27;3.42;;;19.00;92.60;;;;;;5011521;28;20053;-69
2022/07/19 03:19:26;;;;;;;9.38;4.07;;;18.90;92.80;;;;;;5010837;28;20026;-68
2022/07/19 03:21:52;;;;;;;6.72;3.20;;;18.80;93.00;;;;;;5010726;28;20030;-70
2022/07/19 03:24:18;;;;;;;11.07;3.50;;;18.90;92.90;;;;;;5010936;28;20042;-69
2022/07/19 03:26:44;;;;;;;9.40;3.83;;;18.80;93.00;;;;;;5010744;28;20026;-69
2022/07/19 03:29:10;;;;;;;7.53;3.20;;;18.70;93.10;;;;;;5011344;28;20049;-69
2022/07/19 03:31:36;;;;;;;10.38;3.25;;;18.70;93.10;;;;;;5010719;28;20026;-69
2022/07/19 03:34:03;;;;;;;6.18;3.22;;;18.80;92.90;;;;;;5010690;28;20032;-70
2022/07/19 03:36:28;;;;;;;8.77;3.30;;;18.80;93.10;;;;;;5010595;28;20296;-69
2022/07/19 03:38:54;;;;;;;12.07;3.65;;;18.70;93.20;;;;;;5010553;28;20034;-70
2022/07/19 03:41:20;;;;;;;12.27;3.45;;;18.70;93.20;;;;;;5011152;28;20406;-70
2022/07/19 03:43:46;;;;;;;9.50;3.78;;;18.60;93.50;;;;;;5010572;28;20105;-69
2022/07/19 03:46:11;;;;;;;12.98;3.80;;;18.60;93.50;;;;;;5010608;28;20122;-69
2022/07/19 03:48:37;;;;;;;11.07;3.90;;;18.70;93.50;;;;;;5012634;28;20104;-69
2022/07/19 03:51:06;;;;;;;8.55;3.30;;;18.60;93.60;;;;;;5014101;28;20099;-69
2022/07/19 03:53:34;;;;;;;12.20;3.05;;;18.70;93.60;;;;;;5014099;28;20053;-69
2022/07/19 03:55:59;;;;;;;11.98;3.97;;;18.70;93.60;;;;;;5014367;28;20129;-69
2022/07/19 03:58:25;;;;;;;8.10;3.28;;;18.70;93.60;;;;;;5013999;28;20132;-68
2022/07/19 04:00:51;;;;;;;9.68;3.90;;;18.70;93.40;;;;;;5013010;28;20119;-68
2022/07/19 04:03:16;;;;;;;10.60;3.67;;;18.70;93.40;;;;;;5013835;28;20045;-69
2022/07/19 04:05:43;;;;;;;6.68;3.40;;;18.70;93.20;;;;;;5013603;28;20033;-69
2022/07/19 04:08:09;;;;;;;7.57;3.30;;;18.70;93.30;;;;;;5014464;28;20033;-69
2022/07/19 04:10:34;;;;;;;22.63;3.75;;;18.70;93.30;;;;;;5013855;28;20041;-69
2022/07/19 04:13:00;;;;;;;14.32;3.25;;;18.70;93.40;;;;;;5013696;28;20030;-70
2022/07/19 04:15:26;;;;;;;8.93;3.45;;;18.70;93.60;;;;;;5013542;28;20026;-69
2022/07/19 04:17:52;;;;;;;7.95;3.50;;;18.70;93.50;;;;;;5013941;28;20030;-69
2022/07/19 04:20:18;;;;;;;12.05;3.80;;;18.80;93.50;;;;;;5013974;28;20250;-69
2022/07/19 04:22:43;;;;;;;7.90;3.47;;;18.80;93.00;;;;;;5013726;28;20034;-69
2022/07/19 04:25:09;;;;;;;9.82;3.67;;;18.80;93.10;;;;;;5012719;28;20038;-69
2022/07/19 04:27:35;;;;;;;8.75;3.47;;;18.80;93.40;;;;;;5013623;28;20084;-69
2022/07/19 04:30:01;;;;;;;10.45;3.75;;;18.80;93.60;;;;;;5013503;28;20037;-69
2022/07/19 04:32:28;;;;;;;6.63;3.30;;;18.80;93.40;;;;;;5013850;28;20025;-69
2022/07/19 04:34:54;;;;;;;9.03;3.23;;;18.80;93.70;;;;;;5013383;28;20067;-69
2022/07/19 04:37:20;;;;;;;7.57;3.58;;;18.80;93.60;;;;;;5013343;28;20350;-69
2022/07/19 04:39:46;;;;;;;12.13;4.00;;;18.90;93.70;;;;;;5011858;28;20034;-69
2022/07/19 04:42:11;;;;;;;13.05;3.35;;;18.90;93.30;;;;;;5011931;28;20085;-69
2022/07/19 04:44:37;;;;;;;10.05;3.42;;;18.90;93.70;;;;;;5013009;28;20115;-70
2022/07/19 04:47:03;;;;;;;14.80;3.55;;;18.90;93.30;;;;;;5013477;28;20053;-69
2022/07/19 04:49:28;;;;;;;15.23;3.83;;;18.90;93.80;;;;;;5012927;28;20527;-69
2022/07/19 04:51:54;;;;;;;15.63;3.80;;;18.90;93.50;;;;;;5013071;28;20103;-70
2022/07/19 04:54:20;;;;;;;11.80;3.60;;;19.00;93.20;;;;;;5012951;28;20121;-68
2022/07/19 04:56:45;;;;;;;9.57;3.25;;;19.10;93.60;;;;;;5011872;28;20095;-69
2022/07/19 04:59:11;;;;;;;9.77;3.78;;;19.10;93.70;;;;;;5012410;28;20105;-70
2022/07/19 05:01:37;;;;;;;10.50;3.50;;;19.10;93.50;;;;;;5012865;28;20038;-69
2022/07/19 05:04:03;;;;;;;14.20;3.53;;;19.20;93.50;;;;;;5012617;28;20498;-69
2022/07/19 05:06:29;;;;;;;7.30;3.63;;;19.20;93.90;;;;;;5012694;28;20037;-70
2022/07/19 05:08:56;;;;;;;11.18;3.53;;;19.20;93.70;;;;;;5012730;28;20403;-69
2022/07/19 05:11:22;;;;;;;16.55;4.20;;;19.30;93.80;;;;;;5011950;28;20466;-68
2022/07/19 05:13:48;;;;;;;10.13;3.25;;;19.30;93.60;;;;;;5012645;28;20083;-69
2022/07/19 05:16:14;;;;;;;9.27;3.17;;;19.40;94.00;;;;;;5012372;28;20116;-69
2022/07/19 05:18:39;;;;;;;7.32;2.97;;;19.40;93.60;;;;;;5012261;28;20030;-69
2022/07/19 05:21:05;;;;;;;11.27;3.25;;;19.50;93.60;;;;;;5012383;28;20026;-69
2022/07/19 05:23:31;;;;;;;11.25;3.90;;;19.50;93.50;;;;;;5012688;28;20026;-69
2022/07/19 05:25:57;;;;;;;7.65;2.95;;;19.60;93.40;;;;;;5012788;28;20025;-70
2022/07/19 05:28:23;;;;;;;9.48;3.38;;;19.60;93.30;;;;;;5012445;28;20148;-69
2022/07/19 05:30:49;;;;;;;13.55;3.13;;;19.60;93.60;;;;;;5012219;28;20117;-69
2022/07/19 05:33:16;;;;;;;10.30;3.55;;;19.70;93.70;;;;;;5012485;28;20037;-70
2022/07/19 05:35:42;;;;;;;14.02;3.67;;;19.70;93.20;;;;;;5011030;28;20033;-70
2022/07/19 05:38:08;;;;;;;7.50;3.42;;;19.80;93.60;;;;;;5012930;28;20022;-69
2022/07/19 05:40:34;;;;;;;12.30;3.63;;;19.80;93.30;;;;;;5012152;28;20129;-69
2022/07/19 05:43:00;;;;;;;7.50;3.60;;;19.90;93.10;;;;;;5012108;28;20046;-68
2022/07/19 05:45:26;;;;;;;16.50;4.47;;;20.00;92.90;;;;;;5011929;28;20042;-69
2022/07/19 05:47:52;;;;;;;19.77;4.53;;;20.10;92.90;;;;;;5012133;28;20041;-70
2022/07/19 05:50:18;;;;;;;11.10;3.55;;;20.30;92.70;;;;;;5012280;28;20040;-70
2022/07/19 05:52:44;;;;;;;7.60;3.38;;;20.30;92.40;;;;;;5011014;28;20345;-70
2022/07/19 05:55:10;;;;;;;8.82;3.10;;;20.40;92.30;;;;;;5011744;28;20060;-70
2022/07/19 05:57:35;;;;;;;9.05;3.50;;;20.50;91.90;;;;;;5011823;28;20038;-70
2022/07/19 06:00:03;;;;;;;6.68;2.72;;;20.50;91.30;;;;;;5012266;28;20029;-70
2022/07/19 06:02:29;;;;;;;9.30;3.25;;;20.60;90.80;;;;;;5011451;28;20033;-69
2022/07/19 06:04:54;;;;;;;7.53;2.60;;;20.80;90.60;;;;;;5012074;28;20397;-69
2022/07/19 06:07:20;;;;;;;6.20;2.90;;;20.80;90.40;;;;;;5010324;28;20064;-70
2022/07/19 06:09:46;;;;;;;7.13;2.70;;;20.90;89.80;;;;;;5011194;28;20041;-70
2022/07/19 06:12:11;;;;;;;7.47;3.10;;;21.00;89.40;;;;;;5011288;28;20105;-70
2022/07/19 06:14:37;;;;;;;7.68;3.03;;;21.20;89.00;;;;;;5010597;28;20131;-70
2022/07/19 06:17:02;;;;;;;17.08;6.78;;;21.30;88.00;;;;;;5010846;28;20463;-70
2022/07/19 06:19:28;;;;;;;19.38;6.00;;;21.40;87.40;;;;;;5011342;28;20085;-72
2022/07/19 06:21:54;;;;;;;7.07;3.45;;;21.50;86.90;;;;;;5012060;28;20077;-74
2022/07/19 06:24:20;;;;;;;7.35;3.03;;;21.60;86.50;;;;;;5011486;28;20034;-76
2022/07/19 06:26:45;;;;;;;6.72;2.83;;;21.70;86.00;;;;;;5010592;28;20066;-75
2022/07/19 06:29:11;;;;;;;9.15;2.53;;;21.90;86.50;;;;;;5012252;28;20026;-76
2022/07/19 06:31:37;;;;;;;6.35;2.42;;;21.90;85.80;;;;;;5019638;28;20037;-73
2022/07/19 06:34:03;;;;;;;5.72;2.13;;;22.00;84.40;;;;;;5031113;28;20026;-72
2022/07/19 06:36:28;;;;;;;6.05;2.72;;;22.20;83.30;;;;;;5031081;28;20040;-74
2022/07/19 06:38:54;;;;;;;6.38;2.42;;;22.30;83.20;;;;;;5030923;28;20033;-71
2022/07/19 06:41:20;;;;;;;7.43;2.45;;;22.40;82.50;;;;;;5026669;28;20044;-72
2022/07/19 06:43:46;;;;;;;5.20;2.08;;;22.40;82.30;;;;;;5012345;28;20040;-72
2022/07/19 06:46:11;;;;;;;7.88;2.20;;;22.50;81.60;;;;;;5010982;28;20306;-70
2022/07/19 06:48:37;;;;;;;7.38;2.72;;;22.60;81.30;;;;;;5010807;28;20060;-71
2022/07/19 06:51:07;;;;;;;12.38;6.75;;;22.70;80.80;;;;;;5011108;28;20411;-72
2022/07/19 06:53:33;;;;;;;8.18;3.40;;;22.80;80.50;;;;;;5010947;28;20030;-72
2022/07/19 06:55:58;;;;;;;6.80;2.85;;;22.80;80.60;;;;;;5011644;28;20057;-71
2022/07/19 06:58:24;;;;;;;8.82;2.45;;;22.80;81.00;;;;;;5011051;28;20034;-72
2022/07/19 07:00:51;;;;;;;11.43;2.65;;;22.90;80.70;;;;;;5010964;28;20030;-71
2022/07/19 07:03:18;;;;;;;10.00;2.43;;;23.10;79.40;;;;;;5011188;28;20522;-74
2022/07/19 07:05:44;;;;;;;4.88;2.65;;;23.20;79.10;;;;;;5009447;28;20290;-72
2022/07/19 07:08:09;;;;;;;13.20;2.75;;;23.40;78.70;;;;;;5011204;28;20105;-71
2022/07/19 07:10:35;;;;;;;9.85;3.28;;;23.60;79.30;;;;;;5010848;28;20045;-73
2022/07/19 07:13:01;;;;;;;7.68;2.40;;;23.70;79.20;;;;;;5010674;28;20095;-71
2022/07/19 07:15:26;;;;;;;9.65;2.40;;;23.80;78.80;;;;;;5010488;28;20068;-70
2022/07/19 07:17:52;;;;;;;13.27;2.28;;;23.90;78.00;;;;;;5010544;28;20508;-73
2022/07/19 07:20:18;;;;;;;9.07;2.03;;;24.10;76.20;;;;;;5011295;28;20034;-71
2022/07/19 07:22:46;;;;;;;8.10;2.50;;;24.20;76.30;;;;;;5011727;28;20464;-77
2022/07/19 07:25:12;;;;;;;8.90;2.22;;;24.30;76.00;;;;;;5013393;28;20038;-72
2022/07/19 07:27:38;;;;;;;8.00;2.80;;;24.40;75.80;;;;;;5013281;28;20193;-72
2022/07/19 07:30:05;;;;;;;4.85;2.30;;;24.60;74.20;;;;;;5014286;28;20030;-73
2022/07/19 07:32:31;;;;;;;9.00;2.22;;;24.80;74.50;;;;;;5014328;28;20300;-70
2022/07/19 07:34:56;;;;;;;4.93;2.00;;;24.90;73.90;;;;;;5014910;28;20200;-74
2022/07/19 07:37:22;;;;;;;8.73;2.60;;;25.00;74.30;;;;;;5014631;28;20452;-71
2022/07/19 07:39:48;;;;;;;3.88;1.95;;;25.00;73.20;;;;;;5014296;28;20053;-73
2022/07/19 07:42:14;;;;;;;6.43;2.70;;;25.20;70.90;;;;;;5014328;28;20371;-72
2022/07/19 07:44:41;;;;;;;5.15;1.98;;;25.40;70.90;;;;;;5014536;28;20029;-73
2022/07/19 07:47:08;;;;;;;5.13;2.30;;;25.50;69.10;;;;;;5014996;28;20018;-72
2022/07/19 07:49:34;;;;;;;3.35;2.00;;;25.60;70.30;;;;;;5014474;28;20125;-73
2022/07/19 07:52:00;;;;;;;10.80;2.28;;;25.70;70.70;;;;;;5013375;28;20033;-74
2022/07/19 07:54:26;;;;;;;7.63;2.42;;;25.90;67.80;;;;;;5013367;28;20026;-77
2022/07/19 07:56:52;;;;;;;9.70;2.90;;;26.00;67.90;;;;;;5014451;28;20046;-71
2022/07/19 07:59:17;;;;;;;6.13;2.15;;;26.10;67.30;;;;;;5014565;28;20065;-70
2022/07/19 08:01:44;;;;;;;3.90;1.90;;;26.30;66.40;;;;;;5013702;28;20034;-70
2022/07/19 08:04:10;;;;;;;4.53;2.30;;;26.50;64.70;;;;;;5013597;28;20388;-71
2022/07/19 08:06:36;;;;;;;9.80;2.50;;;26.70;67.20;;;;;;5013647;28;20117;-72
2022/07/19 08:09:03;;;;;;;7.07;2.20;;;26.90;63.50;;;;;;5013982;28;20117;-72
2022/07/19 08:11:28;;;;;;;9.00;2.90;;;27.00;65.30;;;;;;5014572;28;20018;-75
2022/07/19 08:13:54;;;;;;;12.32;2.90;;;27.10;64.70;;;;;;5014180;28;20092;-75
2022/07/19 08:16:20;;;;;;;4.95;2.85;;;27.20;64.30;;;;;;5014304;28;20460;-77
2022/07/19 08:18:46;;;;;;;11.80;2.55;;;27.40;64.40;;;;;;5014071;28;20030;-77
2022/07/19 08:21:11;;;;;;;6.85;2.22;;;27.70;62.00;;;;;;5014033;28;20102;-75
2022/07/19 08:23:37;;;;;;;6.05;1.90;;;28.10;60.80;;;;;;5014047;28;20087;-77
2022/07/19 08:26:06;;;;;;;7.70;1.95;;;28.60;59.50;;;;;;5014400;28;20044;-76
2022/07/19 08:28:31;;;;;;;3.33;1.95;;;29.10;59.50;;;;;;5013276;28;20466;-74
2022/07/19 08:30:57;;;;;;;10.27;2.70;;;29.80;59.60;;;;;;5014176;28;20113;-73
2022/07/19 08:33:25;;;;;;;7.25;2.00;;;30.20;56.40;;;;;;5013383;28;20026;-72
2022/07/19 08:35:51;;;;;;;8.55;1.88;;;30.60;54.30;;;;;;5013524;28;20040;-72
2022/07/19 08:38:16;;;;;;;4.72;2.40;;;31.40;55.00;;;;;;5014063;28;20029;-69
2022/07/19 08:40:43;;;;;;;4.53;2.28;;;32.10;51.70;;;;;;5033159;28;20124;-69
2022/07/19 08:43:10;;;;;;;5.53;2.40;;;33.10;54.40;;;;;;5032109;28;20029;-70
2022/07/19 08:45:37;;;;;;;6.80;2.63;;;34.40;53.50;;;;;;5032699;28;20448;-69
2022/07/19 08:48:05;;;;;;;4.47;2.15;;;35.40;48.00;;;;;;5032714;28;20111;-69
2022/07/19 08:50:33;;;;;;;6.05;2.22;;;36.10;47.30;;;;;;5032453;28;20029;-73
2022/07/19 08:52:59;;;;;;;4.35;2.30;;;36.60;44.80;;;;;;5031457;28;20037;-72
2022/07/19 08:55:26;;;;;;;8.93;3.00;;;37.30;42.80;;;;;;5032619;28;20060;-72
2022/07/19 08:57:57;;;;;;;4.63;2.60;;;37.90;42.30;;;;;;5032507;28;20059;-72
2022/07/19 09:00:29;;;;;;;7.70;2.45;;;38.20;40.90;;;;;;5032374;28;20029;-70
2022/07/19 09:03:03;;;;;;;6.15;2.13;;;38.60;38.20;;;;;;5032641;28;20060;-73
2022/07/19 09:05:29;;;;;;;4.00;2.38;;;39.20;37.50;;;;;;5033143;28;20133;-74
2022/07/19 09:08:15;;;;;;;3.22;1.85;;;39.30;37.50;;;;;;5032256;28;20033;-74
2022/07/19 09:13:31;;;;;;;8.30;2.67;;;39.40;36.70;;;;;;5032543;28;20309;-75
2022/07/19 09:15:57;;;;;;;9.77;2.47;;;39.80;35.20;;;;;;5032685;28;20471;-75
2022/07/19 09:18:31;;;;;;;7.68;3.42;;;39.80;35.00;;;;;;5032003;28;20030;-73
2022/07/19 09:21:05;;;;;;;5.78;2.60;;;40.20;36.90;;;;;;5032133;28;20528;-76
2022/07/19 09:23:31;;;;;;;4.60;2.40;;;40.90;35.60;;;;;;5031954;28;20105;-77
2022/07/19 09:26:00;;;;;;;6.93;2.28;;;40.50;35.80;;;;;;5032018;28;20028;-74
2022/07/19 09:28:29;;;;;;;8.88;2.53;;;40.70;35.70;;;;;;5022979;28;20432;-74
2022/07/19 09:30:57;;;;;;;9.60;2.17;;;40.70;33.90;;;;;;5031729;28;20034;-76
2022/07/19 09:33:27;;;;;;;3.97;2.00;;;40.50;34.00;;;;;;5030387;28;20021;-75
2022/07/19 09:35:58;;;;;;;3.58;2.17;;;40.10;33.40;;;;;;5031438;28;20033;-76
2022/07/19 09:38:33;;;;;;;4.32;1.75;;;39.50;33.40;;;;;;5031969;28;20423;-73
2022/07/19 09:41:08;;;;;;;3.90;2.45;;;38.70;33.40;;;;;;5031431;28;20041;-74
2022/07/19 09:43:55;;;;;;;3.63;1.85;;;38.50;35.20;;;;;;5031125;28;20041;-70
2022/07/19 09:46:36;;;;;;;2.97;2.00;;;38.60;34.90;;;;;;5030598;28;20033;-72
2022/07/19 09:49:13;;;;;;;5.93;2.13;;;37.50;36.50;;;;;;5031308;28;20033;-72
2022/07/19 09:51:41;;;;;;;2.63;1.92;;;37.40;36.00;;;;;;5031193;28;20654;-72
2022/07/19 09:54:10;;;;;;;8.15;2.42;;;37.20;36.40;;;;;;5031516;28;20448;-73
2022/07/19 09:56:40;;;;;;;2.45;1.83;;;36.90;37.70;;;;;;5030242;28;20051;-73
2022/07/19 09:59:06;;;;;;;5.25;1.85;;;36.40;37.00;;;;;;5031515;28;20035;-70
2022/07/19 10:01:33;;;;;;;5.83;2.27;;;36.20;37.30;;;;;;5031133;28;20309;-72
2022/07/19 10:04:06;;;;;;;5.18;2.10;;;35.90;36.30;;;;;;5030955;28;20271;-73
2022/07/19 10:06:32;;;;;;;6.40;1.90;;;35.90;38.20;;;;;;5030930;28;20033;-72
2022/07/19 10:08:58;;;;;;;7.55;2.72;;;35.40;38.60;;;;;;5031064;28;20021;-73
2022/07/19 10:11:25;;;;;;;9.32;2.60;;;35.10;37.70;;;;;;5031201;28;20029;-71
2022/07/19 10:13:50;;;;;;;4.60;2.57;;;35.30;37.80;;;;;;5030498;28;20420;-70
2022/07/19 10:16:24;;;;;;;4.95;2.10;;;35.30;38.50;;;;;;5030522;28;20124;-72
2022/07/19 10:19:02;;;;;;;4.82;2.22;;;35.10;37.60;;;;;;5030409;28;20026;-71
2022/07/19 10:21:30;;;;;;;4.43;1.95;;;35.10;37.60;;;;;;5030328;28;20494;-70
2022/07/19 10:23:55;;;;;;;2.13;1.70;;;35.20;36.70;;;;;;5030404;28;20083;-69
2022/07/19 10:26:36;;;;;;;4.05;1.75;;;35.10;36.20;;;;;;5030805;28;20021;-70
2022/07/19 10:29:10;;;;;;;5.47;1.48;;;35.10;36.10;;;;;;5030348;28;20026;-70
2022/07/19 10:31:36;;;;;;;7.85;1.90;;;35.20;36.10;;;;;;5029085;28;20109;-70
2022/07/19 10:34:10;;;;;;;11.90;3.63;;;35.20;35.60;;;;;;5030426;28;20033;-70
2022/07/19 10:36:39;;;;;;;6.82;2.50;;;35.20;36.30;;;;;;5030235;28;20416;-70
2022/07/19 10:39:23;;;;;;;3.22;1.80;;;35.10;36.40;;;;;;5030405;28;20029;-70
2022/07/19 10:42:17;;;;;;;5.90;1.98;;;35.20;36.20;;;;;;5030167;28;20038;-69
2022/07/19 10:44:55;;;;;;;9.02;3.00;;;35.00;36.00;;;;;;5030414;28;20123;-69
2022/07/19 10:47:37;;;;;;;5.40;1.70;;;35.00;36.30;;;;;;5029650;28;20018;-69
2022/07/19 10:50:06;;;;;;;5.72;2.05;;;35.10;35.80;;;;;;5029068;28;20052;-69
2022/07/19 10:52:37;;;;;;;7.68;2.60;;;35.00;35.20;;;;;;5029895;28;20402;-70
2022/07/19 10:55:18;;;;;;;2.05;1.55;;;34.90;34.70;;;;;;5029875;28;20050;-70
2022/07/19 10:57:45;;;;;;;3.22;1.55;;;34.90;34.30;;;;;;5032767;28;20041;-71
2022/07/19 11:00:28;;;;;;;5.15;1.80;;;35.00;35.20;;;;;;5034267;28;20053;-70
2022/07/19 11:03:21;;;;;;;4.55;2.15;;;34.90;34.40;;;;;;5034327;28;20116;-69
2022/07/19 11:06:17;;;;;;;4.57;1.52;;;34.80;34.80;;;;;;5034322;28;20021;-70
2022/07/19 11:08:43;;;;;;;5.15;1.80;;;34.90;35.70;;;;;;5034565;28;20126;-71
2022/07/19 11:11:12;;;;;;;2.65;1.65;;;35.00;35.50;;;;;;5033898;28;20447;-73
2022/07/19 11:13:43;;;;;;;5.45;1.90;;;35.00;34.40;;;;;;5034767;28;20519;-70
2022/07/19 11:16:09;;;;;;;3.08;1.70;;;35.00;34.60;;;;;;5034270;28;20060;-71
2022/07/19 11:18:35;;;;;;;2.10;1.80;;;34.90;33.90;;;;;;5034062;28;20418;-75
2022/07/19 11:21:03;;;;;;;4.35;1.83;;;35.00;34.40;;;;;;5034035;28;20050;-69
2022/07/19 11:23:36;;;;;;;4.65;1.65;;;34.90;33.90;;;;;;5033945;28;20448;-73
2022/07/19 11:26:22;;;;;;;2.55;1.88;;;35.00;34.30;;;;;;5033234;28;20120;-70
2022/07/19 11:28:49;;;;;;;5.43;1.98;;;34.90;33.70;;;;;;5034003;28;20036;-71
2022/07/19 11:31:22;;;;;;;2.27;1.60;;;34.90;34.10;;;;;;5033672;28;20417;-73
2022/07/19 11:33:53;;;;;;;1.48;1.38;;;34.90;33.20;;;;;;5032943;28;20364;-74
2022/07/19 11:36:19;;;;;;;4.88;1.90;;;34.90;33.60;;;;;;5033624;28;20113;-71
2022/07/19 11:38:48;;;;;;;5.78;2.30;;;34.90;34.50;;;;;;5034059;28;20146;-76
2022/07/19 11:41:18;;;;;;;7.35;5.28;;;34.90;34.10;;;;;;5034440;28;20017;-74
2022/07/19 11:44:04;;;;;;;12.50;4.78;;;34.80;33.60;;;;;;5034003;28;20057;-75
2022/07/19 11:46:37;;;;;;;14.07;2.83;;;34.70;33.70;;;;;;5033207;28;20356;-73
2022/07/19 11:49:04;;;;;;;3.85;1.77;;;34.80;34.30;;;;;;5033371;28;20036;-73
2022/07/19 11:51:32;;;;;;;5.47;1.63;;;34.90;34.10;;;;;;5033632;28;20018;-74
2022/07/19 11:53:59;;;;;;;5.93;1.88;;;34.90;34.00;;;;;;5033673;28;20041;-73
2022/07/19 11:56:28;;;;;;;4.10;1.70;;;35.00;34.70;;;;;;5033701;28;20102;-73
2022/07/19 11:58:56;;;;;;;4.80;2.30;;;34.80;33.60;;;;;;5033547;28;20034;-77
2022/07/19 12:01:33;;;;;;;3.38;1.88;;;34.90;34.60;;;;;;5033303;28;20053;-74
2022/07/19 12:04:17;;;;;;;4.13;1.83;;;34.90;34.40;;;;;;5033461;28;20506;-75
2022/07/19 12:06:49;;;;;;;5.07;3.33;;;35.00;33.90;;;;;;5032257;28;20471;-75
2022/07/19 12:09:24;;;;;;;9.38;3.15;;;35.00;33.30;;;;;;5033450;28;20042;-73
2022/07/19 12:11:52;;;;;;;8.80;2.20;;;35.00;34.10;;;;;;5032382;28;20036;-71
2022/07/19 12:14:35;;;;;;;6.28;2.25;;;35.00;33.50;;;;;;5034185;28;20078;-73
2022/07/19 12:17:12;;;;;;;4.45;1.90;;;35.00;34.10;;;;;;5033619;28;20452;-76
2022/07/19 12:19:39;;;;;;;6.13;2.40;;;35.00;33.10;;;;;;5032706;28;20044;-74
2022/07/19 12:22:06;;;;;;;5.07;2.08;;;35.00;33.60;;;;;;5033243;28;20044;-76
2022/07/19 12:24:42;;;;;;;3.22;1.83;;;34.90;33.10;;;;;;5034179;28;20056;-74
2022/07/19 12:27:09;;;;;;;6.78;2.30;;;34.90;33.00;;;;;;5033907;28;20040;-74
2022/07/19 12:29:35;;;;;;;4.78;2.28;;;34.90;32.70;;;;;;5034003;28;20021;-73
2022/07/19 12:32:06;;;;;;;5.88;2.28;;;34.90;32.60;;;;;;5034464;28;20033;-74
2022/07/19 12:34:47;;;;;;;7.80;2.35;;;34.80;32.00;;;;;;5033705;28;20037;-74
2022/07/19 12:37:26;;;;;;;4.22;2.50;;;34.90;32.30;;;;;;5033718;28;20048;-75
2022/07/19 12:40:19;;;;;;;7.35;2.63;;;34.90;33.00;;;;;;5033722;28;20049;-73
2022/07/19 12:42:49;;;;;;;5.72;2.38;;;34.90;32.50;;;;;;5032368;28;20061;-74
2022/07/19 12:45:20;;;;;;;4.60;1.98;;;34.90;32.70;;;;;;5033635;28;20168;-73
2022/07/19 12:47:47;;;;;;;8.63;2.53;;;34.90;33.00;;;;;;5032156;28;20037;-75
2022/07/19 12:50:41;;;;;;;9.17;2.93;;;34.80;32.10;;;;;;5033935;28;20175;-75
2022/07/19 12:53:09;;;;;;;4.53;2.58;;;34.70;32.20;;;;;;5033012;28;20041;-71